Time;durP1;ratioP1;P1;durP2;ratioP2;P2;SDS_P1;SDS_P2;PMS_P1;PMS_P2;Temp;Humidity;BMP_temperature;BMP_pressure;BME280_temperature;BME280_humidity;BME280_pressure;Samples;Min_cycle;Max_cycle;Signal;HPM_P1;HPM_P2
2022/06/26 00:00:32;;;;;;;2.30;2.20;;;;;;;;;;5005821;28;20181;-59
2022/06/26 00:02:58;;;;;;;5.27;5.07;;;;;;;;;;5006383;28;21254;-59
2022/06/26 00:05:24;;;;;;;2.77;2.67;;;;;;;;;;5011836;28;20213;-59
2022/06/26 00:07:50;;;;;;;2.67;2.57;;;;;;;;;;5008280;28;20364;-62
2022/06/26 00:10:16;;;;;;;3.50;3.40;;;;;;;;;;5008361;28;20384;-61
2022/06/26 00:12:42;;;;;;;3.20;3.10;;;;;;;;;;5006157;28;20208;-60
2022/06/26 00:15:08;;;;;;;16.90;16.07;;;;;;;;;;5006127;28;20774;-60
2022/06/26 00:17:34;;;;;;;51.83;49.40;;;;;;;;;;5007393;28;20250;-61
2022/06/26 00:20:00;;;;;;;2.70;2.60;;;;;;;;;;5007886;28;20301;-59
2022/06/26 00:22:26;;;;;;;2.57;2.47;;;;;;;;;;5007331;28;20193;-60
2022/06/26 00:24:53;;;;;;;1.83;1.77;;;;;;;;;;5005765;28;20193;-60
2022/06/26 00:27:19;;;;;;;1.90;1.80;;;;;;;;;;5004480;28;20591;-60
2022/06/26 00:29:45;;;;;;;1.70;1.70;;;;;;;;;;5004628;28;20649;-60
2022/06/26 00:32:11;;;;;;;1.70;1.70;;;;;;;;;;5005379;28;20185;-61
2022/06/26 00:34:37;;;;;;;1.87;1.77;;;;;;;;;;5010335;28;20189;-60
2022/06/26 00:37:03;;;;;;;1.67;1.67;;;;;;;;;;5011590;28;20203;-60
2022/06/26 00:39:29;;;;;;;1.73;1.70;;;;;;;;;;5006862;28;20549;-61
2022/06/26 00:41:55;;;;;;;1.70;1.70;;;;;;;;;;5004003;28;20201;-60
2022/06/26 00:44:22;;;;;;;1.90;1.80;;;;;;;;;;5008369;28;20189;-60
2022/06/26 00:46:48;;;;;;;1.70;1.70;;;;;;;;;;5007165;28;20217;-60
2022/06/26 00:49:14;;;;;;;2.30;2.20;;;;;;;;;;5009046;28;20629;-60
2022/06/26 00:51:42;;;;;;;2.30;2.20;;;;;;;;;;5008283;28;20196;-58
2022/06/26 00:54:08;;;;;;;2.43;2.33;;;;;;;;;;5002140;28;20739;-60
2022/06/26 00:56:34;;;;;;;2.03;1.93;;;;;;;;;;5010509;28;20347;-59
2022/06/26 00:59:00;;;;;;;1.80;1.70;;;;;;;;;;5011703;28;20722;-59
2022/06/26 01:01:26;;;;;;;1.70;1.70;;;;;;;;;;5006586;28;20230;-60
2022/06/26 01:03:52;;;;;;;1.40;1.40;;;;;;;;;;5011496;28;20205;-60
2022/06/26 01:06:18;;;;;;;2.00;1.90;;;;;;;;;;5010091;28;20212;-60
2022/06/26 01:08:44;;;;;;;1.50;1.50;;;;;;;;;;5011974;28;20231;-60
2022/06/26 01:11:20;;;;;;;1.30;1.30;;;;;;;;;;5010393;28;20574;-59
2022/06/26 01:13:50;;;;;;;1.43;1.43;;;;;;;;;;5010714;28;20189;-60
2022/06/26 01:16:19;;;;;;;1.50;1.50;;;;;;;;;;5007582;28;21532;-61
2022/06/26 01:18:46;;;;;;;1.60;1.60;;;;;;;;;;5013392;28;20255;-59
2022/06/26 01:21:12;;;;;;;1.60;1.60;;;;;;;;;;5006879;28;20181;-61
2022/06/26 01:23:38;;;;;;;1.60;1.60;;;;;;;;;;5010680;28;20632;-60
2022/06/26 01:26:04;;;;;;;1.50;1.50;;;;;;;;;;5010268;28;20520;-60
2022/06/26 01:28:30;;;;;;;1.53;1.53;;;;;;;;;;5006987;28;20204;-60
2022/06/26 01:30:55;;;;;;;1.87;1.77;;;;;;;;;;5002313;28;20720;-59
2022/06/26 01:33:21;;;;;;;1.60;1.60;;;;;;;;;;5005356;28;20802;-61
2022/06/26 01:35:47;;;;;;;1.80;1.73;;;;;;;;;;5011631;28;20221;-60
2022/06/26 01:38:17;;;;;;;1.60;1.60;;;;;;;;;;5010534;28;20275;-60
2022/06/26 01:40:44;;;;;;;1.60;1.60;;;;;;;;;;5007976;28;20642;-60
2022/06/26 01:43:10;;;;;;;1.50;1.50;;;;;;;;;;5011956;28;20186;-60
2022/06/26 01:45:42;;;;;;;1.40;1.40;;;;;;;;;;5005487;28;20201;-60
2022/06/26 01:48:08;;;;;;;1.87;1.77;;;;;;;;;;5009246;28;20240;-60
2022/06/26 01:50:34;;;;;;;1.30;1.30;;;;;;;;;;5006015;28;20275;-60
2022/06/26 01:53:00;;;;;;;1.50;1.50;;;;;;;;;;5008642;28;20193;-60
2022/06/26 01:55:26;;;;;;;1.47;1.47;;;;;;;;;;5006782;28;20189;-61
2022/06/26 01:57:52;;;;;;;1.60;1.60;;;;;;;;;;5009263;28;20193;-60
2022/06/26 02:00:18;;;;;;;1.30;1.30;;;;;;;;;;5005733;28;20204;-62
2022/06/26 02:02:44;;;;;;;1.83;1.73;;;;;;;;;;5009903;28;20276;-60
2022/06/26 02:05:10;;;;;;;1.50;1.50;;;;;;;;;;5009115;28;20236;-63
2022/06/26 02:07:36;;;;;;;1.50;1.50;;;;;;;;;;5003306;28;20661;-60
2022/06/26 02:15:31;;;;;;;1.53;1.50;;;;;;;;;;5004215;28;20196;-60
2022/06/26 02:17:57;;;;;;;1.47;1.47;;;;;;;;;;5008443;28;20586;-61
2022/06/26 02:20:23;;;;;;;1.50;1.50;;;;;;;;;;4992276;28;20189;-61
2022/06/26 02:22:49;;;;;;;1.90;1.80;;;;;;;;;;5004930;28;20271;-61
2022/06/26 02:25:15;;;;;;;1.40;1.40;;;;;;;;;;5005175;28;20224;-61
2022/06/26 02:27:41;;;;;;;1.77;1.70;;;;;;;;;;5011804;28;20228;-60
2022/06/26 02:30:07;;;;;;;1.77;1.70;;;;;;;;;;5001806;28;20204;-62
2022/06/26 02:32:33;;;;;;;1.40;1.40;;;;;;;;;;5007269;28;20267;-62
2022/06/26 02:34:59;;;;;;;1.60;1.60;;;;;;;;;;5008722;28;20184;-60
2022/06/26 02:37:25;;;;;;;1.50;1.50;;;;;;;;;;5007788;28;20228;-62
2022/06/26 02:39:51;;;;;;;1.50;1.50;;;;;;;;;;5005088;28;20196;-61
2022/06/26 02:42:17;;;;;;;1.40;1.40;;;;;;;;;;5011148;28;20197;-60
2022/06/26 02:44:42;;;;;;;1.70;1.70;;;;;;;;;;5010330;28;20239;-60
2022/06/26 02:47:08;;;;;;;1.50;1.50;;;;;;;;;;5007284;28;20205;-61
2022/06/26 02:49:34;;;;;;;1.47;1.47;;;;;;;;;;5010403;28;20193;-61
2022/06/26 02:52:00;;;;;;;1.50;1.50;;;;;;;;;;5008744;28;20920;-61
2022/06/26 02:54:26;;;;;;;1.30;1.30;;;;;;;;;;5009964;28;20178;-60
2022/06/26 02:56:52;;;;;;;1.20;1.20;;;;;;;;;;5006181;28;20203;-62
2022/06/26 02:59:18;;;;;;;1.30;1.30;;;;;;;;;;5008003;28;20198;-61
2022/06/26 03:01:44;;;;;;;1.30;1.30;;;;;;;;;;5003081;28;20783;-61
2022/06/26 03:04:10;;;;;;;1.40;1.40;;;;;;;;;;5006229;28;20189;-61
2022/06/26 03:06:37;;;;;;;1.50;1.50;;;;;;;;;;5009629;28;20230;-61
2022/06/26 03:09:03;;;;;;;1.40;1.40;;;;;;;;;;5003815;28;20190;-62
2022/06/26 03:11:29;;;;;;;1.63;1.63;;;;;;;;;;5010596;28;20181;-60
2022/06/26 03:13:56;;;;;;;1.77;1.70;;;;;;;;;;5003447;28;20579;-61
2022/06/26 03:16:22;;;;;;;1.70;1.67;;;;;;;;;;5004642;28;20189;-60
2022/06/26 03:18:48;;;;;;;1.40;1.40;;;;;;;;;;5004517;28;20192;-60
2022/06/26 03:21:14;;;;;;;1.80;1.70;;;;;;;;;;5010067;28;20215;-60
2022/06/26 03:26:24;;;;;;;1.50;1.50;;;;;;;;;;5005026;28;20352;-60
2022/06/26 03:28:50;;;;;;;1.63;1.60;;;;;;;;;;5001417;28;20193;-60
2022/06/26 03:31:16;;;;;;;1.40;1.40;;;;;;;;;;4984388;28;20643;-61
2022/06/26 03:33:42;;;;;;;1.57;1.57;;;;;;;;;;5009878;28;20690;-58
2022/06/26 03:36:08;;;;;;;1.60;1.60;;;;;;;;;;5005801;28;20569;-61
2022/06/26 03:38:37;;;;;;;1.37;1.37;;;;;;;;;;5009654;28;20223;-61
2022/06/26 03:41:03;;;;;;;1.50;1.50;;;;;;;;;;5006580;28;20219;-61
2022/06/26 03:43:29;;;;;;;1.30;1.30;;;;;;;;;;5008864;28;20706;-61
2022/06/26 03:45:55;;;;;;;1.40;1.40;;;;;;;;;;5002719;28;20190;-62
2022/06/26 03:48:21;;;;;;;1.20;1.20;;;;;;;;;;5009217;28;20202;-61
2022/06/26 03:50:47;;;;;;;1.40;1.40;;;;;;;;;;5011242;28;20964;-61
2022/06/26 03:53:13;;;;;;;1.20;1.20;;;;;;;;;;5004581;28;20634;-60
2022/06/26 03:55:39;;;;;;;1.20;1.20;;;;;;;;;;5009233;28;20673;-61
2022/06/26 03:58:05;;;;;;;1.30;1.30;;;;;;;;;;5007110;28;20193;-59
2022/06/26 04:00:31;;;;;;;1.30;1.30;;;;;;;;;;5007697;28;20320;-60
2022/06/26 04:02:57;;;;;;;1.30;1.30;;;;;;;;;;5007193;28;20223;-60
2022/06/26 04:05:23;;;;;;;1.50;1.50;;;;;;;;;;5005675;28;20227;-60
2022/06/26 04:07:49;;;;;;;1.60;1.60;;;;;;;;;;5005973;28;20205;-60
2022/06/26 04:10:15;;;;;;;1.27;1.27;;;;;;;;;;5003573;28;20219;-60
2022/06/26 04:12:41;;;;;;;1.27;1.27;;;;;;;;;;5006962;28;20193;-60
2022/06/26 04:15:07;;;;;;;1.30;1.30;;;;;;;;;;5008519;28;20186;-61
2022/06/26 04:17:33;;;;;;;1.30;1.30;;;;;;;;;;5007415;28;20188;-59
2022/06/26 04:19:59;;;;;;;1.20;1.20;;;;;;;;;;5006009;28;20213;-60
2022/06/26 04:22:25;;;;;;;1.20;1.20;;;;;;;;;;5001207;28;20189;-60
2022/06/26 04:24:51;;;;;;;1.50;1.50;;;;;;;;;;5007944;28;20201;-61
2022/06/26 04:27:18;;;;;;;1.30;1.30;;;;;;;;;;5009957;28;20213;-62
2022/06/26 04:29:43;;;;;;;1.60;1.50;;;;;;;;;;5014185;28;20749;-60
2022/06/26 04:32:09;;;;;;;1.27;1.27;;;;;;;;;;5005333;28;20185;-61
2022/06/26 04:34:35;;;;;;;1.33;1.33;;;;;;;;;;5009330;28;20197;-61
2022/06/26 04:37:01;;;;;;;59.60;56.40;;;;;;;;;;5011213;28;20199;-60
2022/06/26 04:39:27;;;;;;;90.93;86.43;;;;;;;;;;5008912;28;20530;-61
2022/06/26 04:41:53;;;;;;;107.87;102.57;;;;;;;;;;5010342;28;20240;-60
2022/06/26 04:44:19;;;;;;;159.43;150.47;;;;;;;;;;5011083;28;21136;-60
2022/06/26 04:46:46;;;;;;;126.27;119.73;;;;;;;;;;5009695;28;20207;-60
2022/06/26 04:49:12;;;;;;;55.80;52.90;;;;;;;;;;5011430;28;20716;-59
2022/06/26 04:51:39;;;;;;;163.43;153.93;;;;;;;;;;5015124;28;20715;-60
2022/06/26 04:54:05;;;;;;;136.80;129.57;;;;;;;;;;5007785;28;20941;-61
2022/06/26 04:56:31;;;;;;;75.00;71.33;;;;;;;;;;5009280;28;20230;-61
2022/06/26 04:58:57;;;;;;;107.67;102.23;;;;;;;;;;5010068;28;21856;-61
2022/06/26 05:01:23;;;;;;;86.67;82.03;;;;;;;;;;5011467;28;20559;-61
2022/06/26 05:03:49;;;;;;;95.20;90.40;;;;;;;;;;5011869;28;20235;-60
2022/06/26 05:06:15;;;;;;;114.40;108.70;;;;;;;;;;5008825;28;20205;-60
2022/06/26 05:08:41;;;;;;;96.53;91.90;;;;;;;;;;5012559;28;20185;-59
2022/06/26 05:11:07;;;;;;;81.50;77.70;;;;;;;;;;5010656;28;20276;-62
2022/06/26 05:13:33;;;;;;;57.30;54.60;;;;;;;;;;5012636;28;20196;-62
2022/06/26 05:15:59;;;;;;;67.83;64.53;;;;;;;;;;5011144;28;20533;-61
2022/06/26 05:18:25;;;;;;;129.17;122.67;;;;;;;;;;5010481;28;20253;-60
2022/06/26 05:20:51;;;;;;;116.20;110.60;;;;;;;;;;5009482;28;20303;-61
2022/06/26 05:23:17;;;;;;;87.83;83.73;;;;;;;;;;5010161;28;20193;-60
2022/06/26 05:25:43;;;;;;;67.73;64.53;;;;;;;;;;5011236;28;20580;-59
2022/06/26 05:28:09;;;;;;;74.77;71.30;;;;;;;;;;5012488;28;20985;-59
2022/06/26 05:30:35;;;;;;;94.60;90.10;;;;;;;;;;5009311;28;20196;-62
2022/06/26 05:33:01;;;;;;;73.97;70.43;;;;;;;;;;5013041;28;20654;-60
2022/06/26 05:35:27;;;;;;;73.73;70.30;;;;;;;;;;5008220;28;20181;-61
2022/06/26 05:37:53;;;;;;;179.93;170.20;;;;;;;;;;5011187;28;20218;-60
2022/06/26 05:40:19;;;;;;;141.03;134.27;;;;;;;;;;5013647;28;20746;-61
2022/06/26 05:42:45;;;;;;;83.50;79.63;;;;;;;;;;5006779;28;20187;-61
2022/06/26 05:45:11;;;;;;;32.83;31.33;;;;;;;;;;5009816;28;20217;-60
2022/06/26 05:47:37;;;;;;;86.77;82.77;;;;;;;;;;5009629;28;20661;-61
2022/06/26 05:50:03;;;;;;;47.83;45.60;;;;;;;;;;5009971;28;20200;-60
2022/06/26 05:52:29;;;;;;;23.93;22.87;;;;;;;;;;5006965;28;20181;-60
2022/06/26 05:54:55;;;;;;;16.13;15.43;;;;;;;;;;5009368;28;20196;-61
2022/06/26 05:57:21;;;;;;;8.53;8.17;;;;;;;;;;5007929;28;20287;-60
2022/06/26 05:59:47;;;;;;;16.47;15.73;;;;;;;;;;5013159;28;20211;-62
2022/06/26 06:02:13;;;;;;;10.47;10.03;;;;;;;;;;5005814;28;20197;-60
2022/06/26 06:04:39;;;;;;;2.77;2.67;;;;;;;;;;5006526;28;20230;-61
2022/06/26 06:07:05;;;;;;;2.60;2.50;;;;;;;;;;5001940;28;20210;-59
2022/06/26 06:09:31;;;;;;;25.50;24.33;;;;;;;;;;5004902;28;20185;-61
2022/06/26 06:11:57;;;;;;;23.13;22.07;;;;;;;;;;5007576;28;20591;-60
2022/06/26 06:14:23;;;;;;;8.10;7.77;;;;;;;;;;5004082;28;20189;-60
2022/06/26 06:16:49;;;;;;;34.67;33.07;;;;;;;;;;4999857;28;20650;-61
2022/06/26 06:19:15;;;;;;;77.60;73.97;;;;;;;;;;5006329;28;20558;-61
2022/06/26 06:21:41;;;;;;;40.03;38.13;;;;;;;;;;4998814;28;20468;-61
2022/06/26 06:24:07;;;;;;;42.27;40.30;;;;;;;;;;5009769;28;20189;-61
2022/06/26 06:26:33;;;;;;;59.63;56.83;;;;;;;;;;5000368;28;20323;-60
2022/06/26 06:28:59;;;;;;;1.87;1.77;;;;;;;;;;4995322;28;20397;-60
2022/06/26 06:31:25;;;;;;;28.00;26.70;;;;;;;;;;4985406;28;20715;-61
2022/06/26 06:33:51;;;;;;;18.13;17.33;;;;;;;;;;5007638;28;21005;-56
2022/06/26 06:36:17;;;;;;;4.20;4.00;;;;;;;;;;5005669;28;20193;-57
2022/06/26 06:38:43;;;;;;;5.07;4.87;;;;;;;;;;5011182;28;20189;-54
2022/06/26 06:41:09;;;;;;;24.60;23.47;;;;;;;;;;5002940;28;20185;-56
2022/06/26 06:43:35;;;;;;;39.53;37.67;;;;;;;;;;5008393;28;20193;-57
2022/06/26 06:46:01;;;;;;;53.33;50.83;;;;;;;;;;5005757;28;20196;-57
2022/06/26 06:48:27;;;;;;;107.28;102.30;;;;;;;;;;5002949;28;20262;-56
2022/06/26 06:50:53;;;;;;;105.22;100.45;;;;;;;;;;5003464;28;20250;-57
2022/06/26 06:53:19;;;;;;;93.38;89.05;;;;;;;;;;5001002;28;20207;-58
2022/06/26 06:55:45;;;;;;;55.95;53.40;;;;;;;;;;5003468;28;20328;-57
2022/06/26 06:58:11;;;;;;;68.57;65.38;;;;;;;;;;5004346;28;20698;-57
2022/06/26 07:00:37;;;;;;;56.33;53.67;;;;;;;;;;5002839;28;20254;-57
2022/06/26 07:03:03;;;;;;;48.08;45.83;;;;;;;;;;4992573;28;20209;-57
2022/06/26 07:05:29;;;;;;;66.50;63.42;;;;;;;;;;4993200;28;20217;-57
2022/06/26 07:07:55;;;;;;;45.45;43.35;;;;;;;;;;5005500;28;20200;-58
2022/06/26 07:10:21;;;;;;;63.55;60.55;;;;;;;;;;5010423;28;20720;-58
2022/06/26 07:12:58;;;;;;;21.48;20.48;;;;;;;;;;5008967;28;20193;-58
2022/06/26 07:15:24;;;;;;;190.05;180.88;;;;;;;;;;4993261;28;20191;-58
2022/06/26 07:17:50;;;;;;;49.03;46.75;;;;;;;;;;4994451;28;20193;-58
2022/06/26 07:20:16;;;;;;;39.45;37.65;;;;;;;;;;4998434;28;20745;-58
2022/06/26 07:22:42;;;;;;;153.80;146.20;;;;;;;;;;4994964;28;20185;-57
2022/06/26 07:25:08;;;;;;;96.38;91.90;;;;;;;;;;5002670;28;20706;-57
2022/06/26 07:27:34;;;;;;;116.10;110.72;;;;;;;;;;5000025;28;20205;-56
2022/06/26 07:30:00;;;;;;;71.40;68.07;;;;;;;;;;4996088;28;20654;-62
2022/06/26 07:32:27;;;;;;;12.18;11.63;;;;;;;;;;4989812;28;20319;-61
2022/06/26 07:34:53;;;;;;;70.25;66.95;;;;;;;;;;5000449;28;20189;-60
2022/06/26 07:37:19;;;;;;;16.02;15.27;;;;;;;;;;5005367;28;21724;-59
2022/06/26 07:39:45;;;;;;;95.72;91.25;;;;;;;;;;5011169;28;20199;-59
2022/06/26 07:42:11;;;;;;;78.32;74.65;;;;;;;;;;5009905;28;20193;-59
2022/06/26 07:44:37;;;;;;;52.88;50.40;;;;;;;;;;5000966;28;20188;-60
2022/06/26 07:47:03;;;;;;;66.30;63.15;;;;;;;;;;5001863;28;20213;-61
2022/06/26 07:49:29;;;;;;;45.92;43.75;;;;;;;;;;4994172;28;20187;-59
2022/06/26 07:51:55;;;;;;;28.35;27.05;;;;;;;;;;5000067;28;20541;-59
2022/06/26 07:54:21;;;;;;;33.33;31.77;;;;;;;;;;5009562;28;20189;-63
2022/06/26 07:56:50;;;;;;;4.07;3.92;;;;;;;;;;4998972;28;20595;-59
2022/06/26 07:59:16;;;;;;;3.80;3.63;;;;;;;;;;4991806;28;20185;-60
2022/06/26 08:01:42;;;;;;;4.38;4.20;;;;;;;;;;5006624;28;20197;-60
2022/06/26 08:04:08;;;;;;;14.88;14.20;;;;;;;;;;5000151;28;20207;-59
2022/06/26 08:06:33;;;;;;;71.25;67.85;;;;;;;;;;4993371;28;20706;-60
2022/06/26 08:09:00;;;;;;;56.10;53.40;;;;;;;;;;4996045;28;20216;-60
2022/06/26 08:11:26;;;;;;;111.43;106.03;;;;;;;;;;4992650;28;20273;-61
2022/06/26 08:13:52;;;;;;;206.95;196.82;;;;;;;;;;4992557;28;20195;-57
2022/06/26 08:16:18;;;;;;;148.10;141.05;;;;;;;;;;5002514;28;20606;-57
2022/06/26 08:18:44;;;;;;;138.80;132.13;;;;;;;;;;5004910;28;20189;-58
2022/06/26 08:23:55;;;;;;;153.25;145.98;;;;;;;;;;4991089;28;20196;-58
2022/06/26 08:26:21;;;;;;;106.90;101.82;;;;;;;;;;4993772;28;20747;-56
2022/06/26 08:28:47;;;;;;;30.77;29.33;;;;;;;;;;5001026;28;20776;-59
2022/06/26 08:31:13;;;;;;;145.15;138.27;;;;;;;;;;4978183;28;20196;-59
2022/06/26 08:33:39;;;;;;;182.18;173.50;;;;;;;;;;4998355;28;20216;-59
2022/06/26 08:36:05;;;;;;;149.48;142.32;;;;;;;;;;5004795;28;20680;-60
2022/06/26 08:38:31;;;;;;;155.90;148.57;;;;;;;;;;5009084;28;20197;-59
2022/06/26 08:40:59;;;;;;;82.45;78.53;;;;;;;;;;5002791;28;20209;-59
2022/06/26 08:43:25;;;;;;;208.23;197.95;;;;;;;;;;5007679;28;20193;-60
2022/06/26 08:45:53;;;;;;;226.30;215.13;;;;;;;;;;4999703;28;20199;-60
2022/06/26 08:48:19;;;;;;;205.93;195.80;;;;;;;;;;4992030;28;20263;-61
2022/06/26 08:50:45;;;;;;;207.95;197.57;;;;;;;;;;5008751;28;20194;-59
2022/06/26 08:53:11;;;;;;;262.50;248.93;;;;;;;;;;4999449;28;23493;-61
2022/06/26 08:55:37;;;;;;;234.18;222.13;;;;;;;;;;5010232;28;20192;-59
2022/06/26 08:58:03;;;;;;;339.83;320.38;;;;;;;;;;5014794;28;20932;-59
2022/06/26 09:00:30;;;;;;;320.83;302.83;;;;;;;;;;5012918;28;20425;-59
2022/06/26 09:02:56;;;;;;;417.33;392.42;;;;;;;;;;5013761;28;20179;-60
2022/06/26 09:05:22;;;;;;;432.88;406.92;;;;;;;;;;5012514;28;20232;-60
2022/06/26 09:07:48;;;;;;;305.83;289.55;;;;;;;;;;5012052;28;20209;-59
2022/06/26 09:10:17;;;;;;;151.52;144.27;;;;;;;;;;5012898;28;20772;-59
2022/06/26 09:12:43;;;;;;;278.75;264.25;;;;;;;;;;5008905;28;20278;-59
2022/06/26 09:15:09;;;;;;;375.05;353.70;;;;;;;;;;5012886;28;20189;-60
2022/06/26 09:17:35;;;;;;;378.95;357.33;;;;;;;;;;4998917;28;20220;-60
2022/06/26 09:20:01;;;;;;;311.70;294.88;;;;;;;;;;5015748;28;20240;-60
2022/06/26 09:22:27;;;;;;;510.20;478.83;;;;;;;;;;5012367;28;20204;-60
2022/06/26 09:24:54;;;;;;;546.00;511.58;;;;;;;;;;5013436;28;20547;-60
2022/06/26 09:27:21;;;;;;;379.63;357.85;;;;;;;;;;5011681;28;20229;-60
2022/06/26 09:29:57;;;;;;;328.65;310.65;;;;;;;;;;5013579;28;20189;-60
2022/06/26 09:32:23;;;;;;;513.30;482.98;;;;;;;;;;5010784;28;20193;-60
2022/06/26 09:34:50;;;;;;;494.17;464.98;;;;;;;;;;5004211;28;20914;-60
2022/06/26 09:37:16;;;;;;;472.88;445.23;;;;;;;;;;5008056;28;20705;-60
2022/06/26 09:39:42;;;;;;;168.95;159.98;;;;;;;;;;5009146;28;20273;-60
2022/06/26 09:42:18;;;;;;;444.58;418.85;;;;;;;;;;5009999;28;20296;-60
2022/06/26 09:44:47;;;;;;;328.08;310.52;;;;;;;;;;5017191;28;20189;-60
2022/06/26 09:47:35;;;;;;;367.92;347.90;;;;;;;;;;5006373;28;20213;-60
2022/06/26 09:50:05;;;;;;;282.00;267.77;;;;;;;;;;5008808;28;20227;-60
2022/06/26 09:52:32;;;;;;;307.48;291.83;;;;;;;;;;5013316;28;20185;-60
2022/06/26 09:54:59;;;;;;;79.72;75.78;;;;;;;;;;5008543;28;20188;-60
2022/06/26 09:57:26;;;;;;;122.20;116.32;;;;;;;;;;5013126;28;20189;-60
2022/06/26 09:59:52;;;;;;;197.20;187.75;;;;;;;;;;5012828;28;20274;-60
2022/06/26 10:07:51;;;;;;;483.95;454.88;;;;;;;;;;5011746;28;20275;-60
2022/06/26 10:10:18;;;;;;;475.52;448.58;;;;;;;;;;5001987;28;20193;-61
2022/06/26 10:12:45;;;;;;;146.38;138.88;;;;;;;;;;5010695;28;20304;-60
2022/06/26 10:15:11;;;;;;;521.47;491.27;;;;;;;;;;4999857;28;20185;-59
2022/06/26 10:17:40;;;;;;;497.15;467.95;;;;;;;;;;5013374;28;20208;-60
2022/06/26 10:20:09;;;;;;;382.75;360.75;;;;;;;;;;5014006;28;20181;-60
2022/06/26 10:22:42;;;;;;;545.47;512.63;;;;;;;;;;4992011;28;20262;-61
2022/06/26 10:25:08;;;;;;;84.05;79.93;;;;;;;;;;5014229;28;20233;-60
2022/06/26 10:27:37;;;;;;;146.57;139.00;;;;;;;;;;5009541;28;20744;-61
2022/06/26 10:30:10;;;;;;;633.60;593.22;;;;;;;;;;5011652;28;20575;-60
2022/06/26 10:32:36;;;;;;;372.50;352.27;;;;;;;;;;5011414;28;20185;-61
2022/06/26 10:35:03;;;;;;;369.65;349.63;;;;;;;;;;5012556;28;20191;-61
2022/06/26 10:37:39;;;;;;;267.83;254.25;;;;;;;;;;5012254;28;21245;-61
2022/06/26 10:40:11;;;;;;;312.00;295.67;;;;;;;;;;5009657;28;20185;-61
2022/06/26 10:42:52;;;;;;;228.30;216.85;;;;;;;;;;5008723;28;20601;-61
2022/06/26 10:45:28;;;;;;;258.25;245.38;;;;;;;;;;5000660;28;20208;-61
2022/06/26 10:47:55;;;;;;;237.45;225.82;;;;;;;;;;4997804;28;20294;-61
2022/06/26 10:50:27;;;;;;;155.90;148.27;;;;;;;;;;5011391;28;20189;-60
2022/06/26 10:53:13;;;;;;;140.02;133.13;;;;;;;;;;5011842;28;20188;-60
2022/06/26 10:55:39;;;;;;;100.40;95.53;;;;;;;;;;5014306;28;20196;-60
2022/06/26 10:58:05;;;;;;;49.58;47.17;;;;;;;;;;5012387;28;20550;-60
2022/06/26 11:00:31;;;;;;;14.07;13.45;;;;;;;;;;5015212;28;20185;-59
2022/06/26 11:02:57;;;;;;;13.85;13.23;;;;;;;;;;5012082;28;20244;-60
2022/06/26 11:05:23;;;;;;;15.10;14.40;;;;;;;;;;5013258;28;20216;-60
2022/06/26 11:07:50;;;;;;;8.77;8.38;;;;;;;;;;5013474;28;20617;-60
2022/06/26 11:10:17;;;;;;;5.97;5.75;;;;;;;;;;5013341;28;20595;-60
2022/06/26 11:12:44;;;;;;;5.75;5.53;;;;;;;;;;5008917;28;20186;-60
2022/06/26 11:15:19;;;;;;;4.65;4.45;;;;;;;;;;5008846;28;20638;-60
2022/06/26 11:17:55;;;;;;;4.35;4.15;;;;;;;;;;5004962;28;20195;-63
2022/06/26 11:23:15;;;;;;;4.50;4.30;;;;;;;;;;5011731;28;20211;-61
2022/06/26 11:25:41;;;;;;;4.05;3.88;;;;;;;;;;5011335;28;20232;-60
2022/06/26 11:28:10;;;;;;;4.18;3.97;;;;;;;;;;5012306;28;20219;-60
2022/06/26 11:30:40;;;;;;;3.25;3.15;;;;;;;;;;5016046;28;20185;-60
2022/06/26 11:33:06;;;;;;;3.25;3.15;;;;;;;;;;5010684;28;20189;-62
2022/06/26 11:35:34;;;;;;;2.80;2.70;;;;;;;;;;5012416;28;20189;-60
2022/06/26 11:38:08;;;;;;;2.53;2.42;;;;;;;;;;5010046;28;20268;-60
2022/06/26 11:40:34;;;;;;;3.22;3.13;;;;;;;;;;5013102;28;20659;-60
2022/06/26 11:43:00;;;;;;;2.88;2.78;;;;;;;;;;5012251;28;20180;-60
2022/06/26 11:45:26;;;;;;;2.63;2.53;;;;;;;;;;5014428;28;20193;-60
2022/06/26 11:47:52;;;;;;;3.05;2.95;;;;;;;;;;5010970;28;20231;-61
2022/06/26 11:50:19;;;;;;;2.85;2.75;;;;;;;;;;4996588;28;20197;-60
2022/06/26 11:52:45;;;;;;;3.58;3.47;;;;;;;;;;5012449;28;20192;-60
2022/06/26 11:55:11;;;;;;;3.03;2.92;;;;;;;;;;4995749;28;20185;-60
2022/06/26 11:57:37;;;;;;;2.83;2.72;;;;;;;;;;5009806;28;20189;-60
2022/06/26 12:00:07;;;;;;;2.72;2.63;;;;;;;;;;5011884;28;20685;-60
2022/06/26 12:02:32;;;;;;;3.20;3.10;;;;;;;;;;5009210;28;20190;-61
2022/06/26 12:04:59;;;;;;;2.25;2.15;;;;;;;;;;4996764;28;20908;-60
2022/06/26 12:07:25;;;;;;;2.95;2.85;;;;;;;;;;5011014;28;20681;-60
2022/06/26 12:09:51;;;;;;;3.05;2.95;;;;;;;;;;5012501;28;20190;-60
2022/06/26 12:12:17;;;;;;;2.95;2.85;;;;;;;;;;5011903;28;20193;-60
2022/06/26 12:14:46;;;;;;;3.40;3.30;;;;;;;;;;5010845;28;20204;-60
2022/06/26 12:17:12;;;;;;;3.08;2.97;;;;;;;;;;4993284;28;20204;-60
2022/06/26 12:19:39;;;;;;;3.33;3.22;;;;;;;;;;5011482;28;20750;-61
2022/06/26 12:22:05;;;;;;;4.03;3.85;;;;;;;;;;5011811;28;20194;-60
2022/06/26 12:24:31;;;;;;;3.47;3.38;;;;;;;;;;5014305;28;20193;-60
2022/06/26 12:26:59;;;;;;;3.25;3.15;;;;;;;;;;5012857;28;20696;-59
2022/06/26 12:29:26;;;;;;;3.35;3.25;;;;;;;;;;5010151;28;20181;-59
2022/06/26 12:31:52;;;;;;;2.92;2.83;;;;;;;;;;5015840;28;20181;-59
2022/06/26 12:34:18;;;;;;;3.33;3.22;;;;;;;;;;5010887;28;20182;-59
2022/06/26 12:36:44;;;;;;;3.03;2.92;;;;;;;;;;5010761;28;20268;-59
2022/06/26 12:39:11;;;;;;;3.60;3.50;;;;;;;;;;5009381;28;20288;-60
2022/06/26 12:41:37;;;;;;;4.43;4.22;;;;;;;;;;5009017;28;20177;-60
2022/06/26 12:44:03;;;;;;;3.63;3.53;;;;;;;;;;5012050;28;20232;-60
2022/06/26 12:46:32;;;;;;;3.38;3.28;;;;;;;;;;5016374;28;20181;-60
2022/06/26 12:48:59;;;;;;;4.50;4.30;;;;;;;;;;4994197;28;20220;-60
2022/06/26 12:51:25;;;;;;;3.70;3.60;;;;;;;;;;4986757;28;20201;-60
2022/06/26 12:53:51;;;;;;;5.88;5.65;;;;;;;;;;4997456;28;20200;-60
2022/06/26 12:56:16;;;;;;;7.30;6.97;;;;;;;;;;5012898;28;20821;-60
2022/06/26 12:58:42;;;;;;;7.28;6.95;;;;;;;;;;5016225;28;20194;-60
2022/06/26 13:01:09;;;;;;;23.92;22.83;;;;;;;;;;5014034;28;20197;-60
2022/06/26 13:03:37;;;;;;;307.55;290.35;;;;;;;;;;5016036;28;20220;-59
2022/06/26 13:06:03;;;;;;;52.75;49.50;;;;;;;;;;5016469;28;20579;-60
2022/06/26 13:08:31;;;;;;;409.33;383.77;;;;;;;;;;5017060;28;20208;-60
2022/06/26 13:11:22;;;;;;;7.00;6.70;;;;;;;;;;5012958;28;20681;-60
2022/06/26 13:13:42;;;;;;;436.50;407.27;;;;;;;;;;5006954;28;20181;-59
2022/06/26 13:16:08;;;;;;;538.88;501.08;;;;;;;;;;5001067;28;21107;-60
2022/06/26 13:18:34;;;;;;;39.25;37.40;;;;;;;;;;5014380;28;20194;-59
2022/06/26 13:21:00;;;;;;;33.13;31.60;;;;;;;;;;5012371;28;21037;-60
2022/06/26 13:23:26;;;;;;;4.63;4.43;;;;;;;;;;5012666;28;21031;-59
2022/06/26 13:25:52;;;;;;;4.80;4.60;;;;;;;;;;5012959;28;20239;-60
2022/06/26 13:28:18;;;;;;;7.00;6.70;;;;;;;;;;5008587;28;20748;-60
2022/06/26 13:30:44;;;;;;;16.88;16.10;;;;;;;;;;5013860;28;20677;-60
2022/06/26 13:33:10;;;;;;;18.98;18.13;;;;;;;;;;5007788;28;20190;-60
2022/06/26 13:35:36;;;;;;;7.63;7.32;;;;;;;;;;4999060;28;20185;-60
2022/06/26 13:38:02;;;;;;;12.35;11.80;;;;;;;;;;5014088;28;20193;-60
2022/06/26 13:40:29;;;;;;;10.65;10.15;;;;;;;;;;5013644;28;20223;-60
2022/06/26 13:42:55;;;;;;;242.18;227.27;;;;;;;;;;5011423;28;20177;-60
2022/06/26 13:45:21;;;;;;;454.85;426.55;;;;;;;;;;5015153;28;20197;-60
2022/06/26 13:47:46;;;;;;;388.27;365.27;;;;;;;;;;5011379;28;20851;-60
2022/06/26 13:50:12;;;;;;;386.02;362.85;;;;;;;;;;5017081;28;20181;-60
2022/06/26 13:52:39;;;;;;;327.13;308.30;;;;;;;;;;5011628;28;20265;-60
2022/06/26 13:55:06;;;;;;;408.55;383.50;;;;;;;;;;5016847;28;20180;-60
2022/06/26 13:57:32;;;;;;;11.38;10.88;;;;;;;;;;5016158;28;20604;-60
2022/06/26 13:59:57;;;;;;;125.57;117.90;;;;;;;;;;5010043;28;20269;-60
2022/06/26 14:02:23;;;;;;;311.05;292.95;;;;;;;;;;5013692;28;21163;-60
2022/06/26 14:04:49;;;;;;;360.00;338.75;;;;;;;;;;5015994;28;20235;-58
2022/06/26 14:07:15;;;;;;;18.40;17.55;;;;;;;;;;5012656;28;20225;-59
2022/06/26 14:09:41;;;;;;;404.40;379.73;;;;;;;;;;5015511;28;20185;-59
2022/06/26 14:12:07;;;;;;;359.45;338.23;;;;;;;;;;5011806;28;20188;-60
2022/06/26 14:14:34;;;;;;;5.45;5.25;;;;;;;;;;5008614;28;20221;-60
2022/06/26 14:17:00;;;;;;;4.40;4.20;;;;;;;;;;5015743;28;20662;-60
2022/06/26 14:19:26;;;;;;;4.13;3.92;;;;;;;;;;5009581;28;20185;-59
2022/06/26 14:27:21;;;;;;;224.95;211.48;;;;;;;;;;5012976;28;20223;-60
2022/06/26 14:29:47;;;;;;;2.60;2.50;;;;;;;;;;5004723;28;20189;-59
2022/06/26 14:32:13;;;;;;;199.32;187.45;;;;;;;;;;5008653;28;20185;-59
2022/06/26 14:34:39;;;;;;;2.10;2.00;;;;;;;;;;4992298;28;20181;-60
2022/06/26 14:37:05;;;;;;;1.90;1.80;;;;;;;;;;5008769;28;20205;-59
2022/06/26 14:39:31;;;;;;;2.00;1.90;;;;;;;;;;5010025;28;20184;-60
2022/06/26 14:41:57;;;;;;;2.08;1.98;;;;;;;;;;5012578;28;20300;-60
2022/06/26 14:44:24;;;;;;;2.08;1.98;;;;;;;;;;5006094;28;20189;-60